createdAt,value
2023-03-20T00:01:57.084Z,3.60
2023-03-20T00:04:24.116Z,3.50
2023-03-20T00:06:50.832Z,3.17
2023-03-20T00:09:17.959Z,3.67
2023-03-20T00:11:49.601Z,3.20
2023-03-20T00:14:19.077Z,3.57
2023-03-20T00:16:47.803Z,3.77
2023-03-20T00:19:20.733Z,4.10
2023-03-20T00:21:48.101Z,4.47
2023-03-20T00:24:16.580Z,4.20
2023-03-20T00:26:45.657Z,3.33
2023-03-20T00:29:32.776Z,4.00
2023-03-20T00:31:59.613Z,4.63
2023-03-20T00:34:29.679Z,4.83
2023-03-20T00:36:58.360Z,4.70
2023-03-20T00:39:25.465Z,4.10
2023-03-20T00:41:56.053Z,4.30
2023-03-20T00:44:50.372Z,4.47
2023-03-20T00:47:23.267Z,3.90
2023-03-20T00:49:52.127Z,3.60
2023-03-20T00:52:21.297Z,3.93
2023-03-20T00:54:47.992Z,3.90
2023-03-20T00:57:25.529Z,4.50
2023-03-20T00:59:57.556Z,4.03
2023-03-20T01:02:28.874Z,4.30
2023-03-20T01:04:55.952Z,5.10
2023-03-20T01:07:22.615Z,3.73
2023-03-20T01:09:50.537Z,4.33
2023-03-20T01:12:17.515Z,3.93
2023-03-20T01:14:44.774Z,4.40
2023-03-20T01:17:19.999Z,4.90
2023-03-20T01:19:47.958Z,3.77
2023-03-20T01:22:14.873Z,4.40
2023-03-20T01:24:42.013Z,3.63
2023-03-20T01:27:17.212Z,3.53
2023-03-20T01:29:44.227Z,3.70
2023-03-20T01:32:17.724Z,3.83
2023-03-20T01:34:44.412Z,3.93
2023-03-20T01:37:18.177Z,3.93
2023-03-20T01:39:45.269Z,4.37
2023-03-20T01:42:15.597Z,4.57
2023-03-20T01:44:42.423Z,3.70
2023-03-20T01:47:18.150Z,4.27
2023-03-20T01:50:22.716Z,4.00
2023-03-20T01:52:54.190Z,3.73
2023-03-20T01:55:22.458Z,4.37
2023-03-20T01:57:53.212Z,3.80
2023-03-20T02:00:20.176Z,3.60
2023-03-20T02:02:48.370Z,4.50
2023-03-20T02:05:18.923Z,3.80
2023-03-20T02:07:51.382Z,4.40
2023-03-20T02:10:19.465Z,3.80
2023-03-20T02:12:47.726Z,4.03
2023-03-20T02:15:16.939Z,4.30
2023-03-20T02:17:44.292Z,4.20
2023-03-20T02:20:23.062Z,4.83
2023-03-20T02:23:19.601Z,4.60
2023-03-20T02:25:57.274Z,4.50
2023-03-20T02:28:35.987Z,5.77
2023-03-20T02:31:41.191Z,7.23
2023-03-20T02:34:38.781Z,6.80
2023-03-20T02:37:27.984Z,7.33
2023-03-20T02:40:05.606Z,7.43
2023-03-20T02:42:33.913Z,8.00
2023-03-20T02:45:12.798Z,7.90
2023-03-20T02:48:04.328Z,7.40
2023-03-20T02:50:41.037Z,6.73
2023-03-20T02:53:46.563Z,7.20
2023-03-20T02:56:30.024Z,6.17
2023-03-20T02:59:07.194Z,6.63
2023-03-20T03:01:41.245Z,5.63
2023-03-20T03:04:17.850Z,4.43
2023-03-20T03:06:48.896Z,5.03
2023-03-20T03:09:20.772Z,3.87
2023-03-20T03:11:51.958Z,3.93
2023-03-20T03:14:30.236Z,3.10
2023-03-20T03:16:59.234Z,4.53
2023-03-20T03:19:29.505Z,3.90
2023-03-20T03:21:56.280Z,4.87
2023-03-20T03:24:40.350Z,6.13
2023-03-20T03:27:18.504Z,5.47
2023-03-20T03:29:49.500Z,3.80
2023-03-20T03:32:33.120Z,4.10
2023-03-20T03:35:01.992Z,3.47
2023-03-20T03:38:09.475Z,3.60
2023-03-20T03:40:49.573Z,3.30
2023-03-20T03:43:30.732Z,3.50
2023-03-20T03:46:33.965Z,3.47
2023-03-20T03:49:02.729Z,3.97
2023-03-20T03:51:33.472Z,3.67
2023-03-20T03:54:14.396Z,3.63
2023-03-20T03:56:45.265Z,3.90
2023-03-20T03:59:22.972Z,4.10
2023-03-20T04:01:51.638Z,3.50
2023-03-20T04:04:22.031Z,3.93
2023-03-20T04:06:48.832Z,3.50
2023-03-20T04:09:15.667Z,3.77
2023-03-20T04:11:43.217Z,3.60
2023-03-20T04:14:09.869Z,4.23
2023-03-20T04:16:36.537Z,3.70
2023-03-20T04:19:03.246Z,4.40
2023-03-20T04:21:29.962Z,4.33
2023-03-20T04:23:56.659Z,4.20
2023-03-20T04:26:23.544Z,4.80
2023-03-20T04:28:50.890Z,4.30
2023-03-20T04:31:18.075Z,3.73
2023-03-20T04:33:44.984Z,4.20
2023-03-20T04:36:12.550Z,4.53
2023-03-20T04:38:39.421Z,4.00
2023-03-20T04:41:06.738Z,4.50
2023-03-20T04:43:33.516Z,3.90
2023-03-20T04:46:00.399Z,4.20
2023-03-20T04:48:28.086Z,3.80
2023-03-20T04:50:54.742Z,4.33
2023-03-20T04:53:21.483Z,4.13
2023-03-20T04:55:48.747Z,3.97
2023-03-20T04:58:15.576Z,4.20
2023-03-20T05:00:45.620Z,4.23
2023-03-20T05:03:12.472Z,4.37
2023-03-20T05:05:39.165Z,4.27
2023-03-20T05:08:06.598Z,4.40
2023-03-20T05:10:33.579Z,3.70
2023-03-20T05:13:00.318Z,4.20
2023-03-20T05:15:27.380Z,4.00
2023-03-20T05:17:55.178Z,4.10
2023-03-20T05:20:22.130Z,4.90
2023-03-20T05:22:50.888Z,3.93
2023-03-20T05:25:18.225Z,4.17
2023-03-20T05:27:46.119Z,4.70
2023-03-20T05:30:14.107Z,4.60
2023-03-20T05:32:41.982Z,4.60
2023-03-20T05:35:09.480Z,5.60
2023-03-20T05:37:36.145Z,6.93
2023-03-20T05:40:03.323Z,5.60
2023-03-20T05:42:29.950Z,5.10
2023-03-20T05:44:56.757Z,5.07
2023-03-20T05:47:26.024Z,5.03
2023-03-20T05:49:54.167Z,5.23
2023-03-20T05:52:21.287Z,4.40
2023-03-20T05:54:48.011Z,5.40
2023-03-20T05:57:15.249Z,5.80
2023-03-20T05:59:41.901Z,6.27
2023-03-20T06:02:08.583Z,6.03
2023-03-20T06:04:37.207Z,6.53
2023-03-20T06:07:04.781Z,5.97
2023-03-20T06:09:31.614Z,6.90
2023-03-20T06:11:58.289Z,8.10
2023-03-20T06:14:25.504Z,6.50
2023-03-20T06:16:54.008Z,6.60
2023-03-20T06:19:21.898Z,6.63
2023-03-20T06:21:49.218Z,6.90
2023-03-20T06:24:16.226Z,8.07
2023-03-20T06:26:43.016Z,8.30
2023-03-20T06:29:10.111Z,7.13
2023-03-20T06:31:36.774Z,7.40
2023-03-20T06:34:04.276Z,8.13
2023-03-20T06:36:31.215Z,7.27
2023-03-20T06:38:57.926Z,7.80
2023-03-20T06:41:34.308Z,7.90
2023-03-20T06:44:01.654Z,7.70
2023-03-20T06:46:28.661Z,8.63
2023-03-20T06:48:55.842Z,8.30
2023-03-20T06:51:22.510Z,8.80
2023-03-20T06:53:49.228Z,8.47
2023-03-20T06:56:16.792Z,8.60
2023-03-20T06:58:43.435Z,7.00
2023-03-20T07:01:17.000Z,8.30
2023-03-20T07:03:44.031Z,13.37
2023-03-20T07:06:11.673Z,10.73
2023-03-20T07:08:38.922Z,14.47
2023-03-20T07:11:06.281Z,13.30
2023-03-20T07:13:33.511Z,12.07
2023-03-20T07:16:04.866Z,8.40
2023-03-20T07:18:32.301Z,10.30
2023-03-20T07:21:03.159Z,8.03
2023-03-20T07:23:31.653Z,8.70
2023-03-20T07:25:59.692Z,8.63
2023-03-20T07:28:26.977Z,7.80
2023-03-20T07:30:53.721Z,9.93
2023-03-20T07:33:20.967Z,7.67
2023-03-20T07:35:52.785Z,8.17
2023-03-20T07:38:19.717Z,7.93
2023-03-20T07:40:46.491Z,8.07
2023-03-20T07:43:13.113Z,7.80
2023-03-20T07:45:39.974Z,8.03
2023-03-20T07:48:06.905Z,7.80
2023-03-20T07:50:33.640Z,5.37
2023-03-20T07:53:00.558Z,6.00
2023-03-20T07:55:27.199Z,5.70
2023-03-20T07:57:54.163Z,5.63
2023-03-20T08:00:21.104Z,6.57
2023-03-20T08:02:48.019Z,6.70
2023-03-20T08:05:14.711Z,7.37
2023-03-20T08:07:41.413Z,7.27
2023-03-20T08:10:09.123Z,8.07
2023-03-20T08:12:35.789Z,6.47
2023-03-20T08:15:02.464Z,7.90
2023-03-20T08:17:29.414Z,7.67
2023-03-20T08:19:56.145Z,9.00
2023-03-20T08:22:22.821Z,8.03
2023-03-20T08:24:49.517Z,9.93
2023-03-20T08:27:17.323Z,8.10
2023-03-20T08:29:43.966Z,8.83
2023-03-20T08:32:10.704Z,7.53
2023-03-20T08:34:37.456Z,6.87
2023-03-20T08:37:05.066Z,8.60
2023-03-20T08:39:33.218Z,8.77
2023-03-20T08:42:01.237Z,7.47
2023-03-20T08:44:28.198Z,8.37
2023-03-20T08:46:55.075Z,9.30
2023-03-20T08:49:22.079Z,8.70
2023-03-20T08:51:48.711Z,8.97
2023-03-20T08:54:18.292Z,9.20
2023-03-20T08:56:46.066Z,7.13
2023-03-20T08:59:12.795Z,8.43
2023-03-20T09:01:49.123Z,9.70
2023-03-20T09:04:18.264Z,9.77
2023-03-20T09:06:44.965Z,9.87
2023-03-20T09:09:15.596Z,11.17
2023-03-20T09:11:42.209Z,12.07
2023-03-20T09:14:09.026Z,11.40
2023-03-20T09:16:35.664Z,13.17
2023-03-20T09:19:02.451Z,12.90
2023-03-20T09:21:29.064Z,12.40
2023-03-20T09:23:55.964Z,13.07
2023-03-20T09:26:22.983Z,13.67
2023-03-20T09:28:50.200Z,13.60
2023-03-20T09:31:17.049Z,14.20
2023-03-20T09:33:43.752Z,15.50
2023-03-20T09:36:11.963Z,14.63
2023-03-20T09:38:41.813Z,16.17
2023-03-20T09:41:19.973Z,15.33
2023-03-20T09:44:18.624Z,14.33
2023-03-20T09:47:21.155Z,16.33
2023-03-20T09:49:59.413Z,14.33
2023-03-20T09:52:34.740Z,14.33
2023-03-20T09:55:08.075Z,15.10
2023-03-20T09:57:50.473Z,15.10
2023-03-20T10:00:28.595Z,17.97
2023-03-20T10:03:08.441Z,17.17
2023-03-20T10:06:01.724Z,16.77
2023-03-20T10:08:33.459Z,16.20
2023-03-20T10:11:18.868Z,17.47
2023-03-20T10:13:59.561Z,17.43
2023-03-20T10:16:39.656Z,19.60
2023-03-20T10:19:31.120Z,17.73
2023-03-20T10:22:26.779Z,16.10
2023-03-20T10:25:08.867Z,17.30
2023-03-20T10:27:42.104Z,14.77
2023-03-20T10:30:14.785Z,16.40
2023-03-20T10:32:58.962Z,16.30
2023-03-20T10:35:37.508Z,14.40
2023-03-20T10:38:31.564Z,11.70
2023-03-20T10:40:59.192Z,14.30
2023-03-20T10:43:32.950Z,14.40
2023-03-20T10:46:06.070Z,14.47
2023-03-20T10:48:47.622Z,12.70
2023-03-20T10:51:22.563Z,11.90
2023-03-20T10:53:59.726Z,12.30
2023-03-20T10:56:39.417Z,11.47
2023-03-20T10:59:13.045Z,12.10
2023-03-20T11:01:39.733Z,12.03
2023-03-20T11:04:07.306Z,11.33
2023-03-20T11:06:41.323Z,11.37
2023-03-20T11:09:32.730Z,10.97
2023-03-20T11:12:02.480Z,11.57
2023-03-20T11:14:38.939Z,11.03
2023-03-20T11:17:06.657Z,10.30
2023-03-20T11:19:39.413Z,12.60
2023-03-20T11:22:28.034Z,12.17
2023-03-20T11:24:58.751Z,11.13
2023-03-20T11:27:28.509Z,10.77
2023-03-20T11:29:56.555Z,12.30
2023-03-20T11:32:23.154Z,13.20
2023-03-20T11:34:49.820Z,12.47
2023-03-20T11:37:27.066Z,11.57
2023-03-20T11:39:58.364Z,12.90
2023-03-20T11:42:28.210Z,13.00
2023-03-20T11:45:17.981Z,12.50
2023-03-20T11:47:51.598Z,11.60
2023-03-20T11:50:41.990Z,11.93
2023-03-20T11:53:35.564Z,10.70
2023-03-20T11:56:04.224Z,10.43
2023-03-20T11:58:31.698Z,10.80
2023-03-20T12:00:59.189Z,10.63
2023-03-20T12:03:50.704Z,10.63
2023-03-20T12:06:21.031Z,9.37
2023-03-20T12:09:00.891Z,9.60
2023-03-20T12:12:14.224Z,10.10
2023-03-20T12:15:08.027Z,10.30
2023-03-20T12:17:43.689Z,7.70
2023-03-20T12:20:25.968Z,8.13
2023-03-20T12:23:09.831Z,8.10
2023-03-20T12:25:52.402Z,8.13
2023-03-20T12:28:32.417Z,7.47
2023-03-20T12:31:37.054Z,7.43
2023-03-20T12:34:11.492Z,5.67
2023-03-20T12:36:42.339Z,7.00
2023-03-20T12:39:16.052Z,7.67
2023-03-20T12:42:08.399Z,6.00
2023-03-20T12:45:05.908Z,6.93
2023-03-20T12:47:51.929Z,5.50
2023-03-20T12:50:33.711Z,6.10
2023-03-20T12:53:03.493Z,5.87
2023-03-20T12:55:58.986Z,6.00
2023-03-20T12:58:47.201Z,5.37
2023-03-20T13:01:30.296Z,5.83
2023-03-20T13:04:15.504Z,6.30
2023-03-20T13:06:45.741Z,5.70
2023-03-20T13:09:37.239Z,4.87
2023-03-20T13:12:19.153Z,6.70
2023-03-20T13:14:53.285Z,5.70
2023-03-20T13:17:25.231Z,5.83
2023-03-20T13:20:19.264Z,6.30
2023-03-20T13:23:03.551Z,6.60
2023-03-20T13:26:07.607Z,6.57
2023-03-20T13:28:55.611Z,6.70
2023-03-20T13:31:47.014Z,6.93
2023-03-20T13:34:33.205Z,5.77
2023-03-20T13:37:23.097Z,4.83
2023-03-20T13:40:06.402Z,6.57
2023-03-20T13:42:42.223Z,5.40
2023-03-20T13:45:35.261Z,4.47
2023-03-20T13:48:21.699Z,6.40
2023-03-20T13:51:06.827Z,6.97
2023-03-20T13:53:51.006Z,4.73
2023-03-20T13:56:31.002Z,3.70
2023-03-20T13:59:23.078Z,3.87
2023-03-20T14:02:07.693Z,5.03
2023-03-20T14:04:35.287Z,5.73
2023-03-20T14:07:02.148Z,4.50
2023-03-20T14:09:30.986Z,4.13
2023-03-20T14:12:07.369Z,6.10
2023-03-20T14:15:03.863Z,5.60
2023-03-20T14:17:32.196Z,7.50
2023-03-20T14:20:12.490Z,4.20
2023-03-20T14:22:40.934Z,4.03
2023-03-20T14:25:18.754Z,3.73
2023-03-20T14:28:07.935Z,3.93
2023-03-20T14:30:43.276Z,3.97
2023-03-20T14:33:16.200Z,4.50
2023-03-20T14:35:45.249Z,4.00
2023-03-20T14:38:25.677Z,4.30
2023-03-20T14:41:19.903Z,4.90
2023-03-20T14:44:22.112Z,4.20
2023-03-20T14:46:52.598Z,4.30
2023-03-20T14:49:31.156Z,4.50
2023-03-20T14:52:11.001Z,4.40
2023-03-20T14:54:41.490Z,4.50
2023-03-20T14:57:16.505Z,4.00
2023-03-20T14:59:43.312Z,4.60
2023-03-20T15:02:26.312Z,4.53
2023-03-20T15:04:53.189Z,3.83
2023-03-20T15:07:30.577Z,4.00
2023-03-20T15:10:02.955Z,3.83
2023-03-20T15:12:36.234Z,3.90
2023-03-20T15:15:06.745Z,3.87
2023-03-20T15:17:44.820Z,4.30
2023-03-20T15:20:17.822Z,4.17
2023-03-20T15:22:57.529Z,3.50
2023-03-20T15:25:31.497Z,3.40
2023-03-20T15:27:58.210Z,3.83
2023-03-20T15:30:26.582Z,3.53
2023-03-20T15:32:55.094Z,3.83
2023-03-20T15:35:24.632Z,3.33
2023-03-20T15:37:53.276Z,3.90
2023-03-20T15:40:43.740Z,4.77
2023-03-20T15:43:23.187Z,3.87
2023-03-20T15:45:52.796Z,3.80
2023-03-20T15:48:22.858Z,4.20
2023-03-20T15:50:55.629Z,3.60
2023-03-20T15:53:32.508Z,4.90
2023-03-20T15:56:18.244Z,4.60
2023-03-20T15:58:49.278Z,3.93
2023-03-20T16:01:21.329Z,3.30
2023-03-20T16:03:48.671Z,4.50
2023-03-20T16:06:22.030Z,3.63
2023-03-20T16:09:00.306Z,3.67
2023-03-20T16:11:36.660Z,3.63
2023-03-20T16:14:04.608Z,3.67
2023-03-20T16:16:37.246Z,3.63
2023-03-20T16:19:07.881Z,3.70
2023-03-20T16:21:39.590Z,3.80
2023-03-20T16:24:15.216Z,4.00
2023-03-20T16:26:45.411Z,4.00
2023-03-20T16:29:15.373Z,4.20
2023-03-20T16:31:58.586Z,3.73
2023-03-20T16:34:33.496Z,3.80
2023-03-20T16:37:05.966Z,3.63
2023-03-20T16:39:33.109Z,2.87
2023-03-20T16:42:10.650Z,3.17
2023-03-20T16:44:38.079Z,3.40
2023-03-20T16:47:10.619Z,2.80
2023-03-20T16:49:55.504Z,3.67
2023-03-20T16:52:28.860Z,3.10
2023-03-20T16:54:59.865Z,3.50
2023-03-20T16:57:28.620Z,2.80
2023-03-20T17:00:00.984Z,3.13
2023-03-20T17:02:36.315Z,2.83
2023-03-20T17:05:06.282Z,2.67
2023-03-20T17:07:33.382Z,2.60
2023-03-20T17:10:35.965Z,3.13
2023-03-20T17:13:02.727Z,3.23
2023-03-20T17:15:29.425Z,2.50
2023-03-20T17:17:56.086Z,2.67
2023-03-20T17:20:28.533Z,2.80
2023-03-20T17:22:55.468Z,3.20
2023-03-20T17:25:22.430Z,2.93
2023-03-20T17:27:49.154Z,2.70
2023-03-20T17:30:22.661Z,2.70
2023-03-20T17:32:49.931Z,2.60
2023-03-20T17:35:16.894Z,2.90
2023-03-20T17:37:43.799Z,3.37
2023-03-20T17:40:20.231Z,4.80
2023-03-20T17:42:47.696Z,4.10
2023-03-20T17:45:18.598Z,4.27
2023-03-20T17:47:47.244Z,3.90
2023-03-20T17:50:24.204Z,2.90
2023-03-20T17:52:51.038Z,2.90
2023-03-20T17:55:17.814Z,3.20
2023-03-20T17:57:44.727Z,5.70
2023-03-20T18:00:17.033Z,3.90
2023-03-20T18:02:43.788Z,3.43
2023-03-20T18:05:10.555Z,3.53
2023-03-20T18:07:37.377Z,4.00
2023-03-20T18:10:05.627Z,3.20
2023-03-20T18:12:34.544Z,3.43
2023-03-20T18:15:01.330Z,3.20
2023-03-20T18:17:28.210Z,4.10
2023-03-20T18:19:55.008Z,5.20
2023-03-20T18:22:21.666Z,4.40
2023-03-20T18:24:48.451Z,6.10
2023-03-20T18:27:15.322Z,4.67
2023-03-20T18:29:42.043Z,4.17
2023-03-20T18:32:09.329Z,3.40
2023-03-20T18:34:36.112Z,3.20
2023-03-20T18:37:04.696Z,3.67
2023-03-20T18:39:31.329Z,3.60
2023-03-20T18:41:58.449Z,4.50
2023-03-20T18:44:25.117Z,3.20
2023-03-20T18:46:52.135Z,3.53
2023-03-20T18:49:19.651Z,4.00
2023-03-20T18:51:46.356Z,3.90
2023-03-20T18:54:13.311Z,3.20
2023-03-20T18:56:40.649Z,3.10
2023-03-20T18:59:08.045Z,5.00
2023-03-20T19:01:35.793Z,4.07
2023-03-20T19:04:03.178Z,2.87
2023-03-20T19:06:32.164Z,2.80
2023-03-20T19:08:59.329Z,3.17
2023-03-20T19:11:26.320Z,3.17
2023-03-20T19:13:54.287Z,3.10
2023-03-20T19:16:35.842Z,5.70
2023-03-20T19:19:05.989Z,3.20
2023-03-20T19:21:34.324Z,2.50
2023-03-20T19:24:06.521Z,2.90
2023-03-20T19:26:34.873Z,2.43
2023-03-20T19:29:03.375Z,2.40
2023-03-20T19:31:30.122Z,2.27
2023-03-20T19:33:56.960Z,2.20
2023-03-20T19:36:25.853Z,1.97
2023-03-20T19:38:52.931Z,2.00
2023-03-20T19:41:20.266Z,2.63
2023-03-20T19:43:53.118Z,2.57
2023-03-20T19:46:38.269Z,2.57
2023-03-20T19:49:06.856Z,2.63
2023-03-20T19:51:33.932Z,2.50
2023-03-20T19:54:00.599Z,2.03
2023-03-20T19:56:28.937Z,3.00
2023-03-20T19:58:55.934Z,2.30
2023-03-20T20:01:25.291Z,2.70
2023-03-20T20:03:57.360Z,2.30
2023-03-20T20:06:30.108Z,2.40
2023-03-20T20:08:58.190Z,2.53
2023-03-20T20:11:24.832Z,2.13
2023-03-20T20:14:05.768Z,2.40
2023-03-20T20:16:35.943Z,2.30
2023-03-20T20:19:03.063Z,2.60
2023-03-20T20:24:16.591Z,2.17
2023-03-20T20:26:53.253Z,2.30
2023-03-20T20:29:20.888Z,2.40
2023-03-20T20:31:47.698Z,2.40
2023-03-20T20:35:14.812Z,2.53
2023-03-20T20:39:48.628Z,2.47
2023-03-20T20:42:16.997Z,4.07
2023-03-20T20:44:44.122Z,3.23
2023-03-20T20:47:11.162Z,3.40
2023-03-20T20:49:37.836Z,3.20
2023-03-20T20:52:05.151Z,3.57
2023-03-20T20:54:31.936Z,4.53
2023-03-20T20:56:58.562Z,3.90
2023-03-20T20:59:25.610Z,2.43
2023-03-20T21:01:53.695Z,2.40
2023-03-20T21:04:20.661Z,2.20
2023-03-20T21:09:34.305Z,2.77
2023-03-20T21:12:01.408Z,2.43
2023-03-20T21:14:28.330Z,2.60
2023-03-20T21:17:01.073Z,3.07
2023-03-20T21:19:39.004Z,2.67
2023-03-20T21:22:07.729Z,2.87
2023-03-20T21:24:35.598Z,3.10
2023-03-20T21:27:06.729Z,2.37
2023-03-20T21:29:33.719Z,2.17
2023-03-20T21:32:00.917Z,3.13
2023-03-20T21:34:28.914Z,4.87
2023-03-20T21:36:57.437Z,14.37
2023-03-20T21:39:24.901Z,9.67
2023-03-20T21:41:51.603Z,7.10
2023-03-20T21:44:48.262Z,6.67
2023-03-20T21:50:41.902Z,2.50
2023-03-20T21:53:12.513Z,2.83
2023-03-20T22:01:39.708Z,3.90
2023-03-20T22:04:45.042Z,3.07
2023-03-20T22:15:33.836Z,3.63
2023-03-20T22:32:18.639Z,3.33
2023-03-20T22:37:56.158Z,3.03
2023-03-20T22:43:01.571Z,3.00
2023-03-20T22:45:38.512Z,3.57
2023-03-20T22:48:14.169Z,3.87
2023-03-20T22:50:41.003Z,3.53
2023-03-20T22:53:08.116Z,3.50
2023-03-20T22:55:34.814Z,3.13
2023-03-20T22:58:07.274Z,3.00
2023-03-20T23:00:35.714Z,2.93
2023-03-20T23:03:17.151Z,3.00
2023-03-20T23:05:47.173Z,3.10
2023-03-20T23:08:13.919Z,3.33
2023-03-20T23:10:46.913Z,2.70
2023-03-20T23:13:14.239Z,3.57
2023-03-20T23:15:41.427Z,2.67
2023-03-20T23:18:09.702Z,3.00
2023-03-20T23:20:36.748Z,3.43
2023-03-20T23:23:03.580Z,2.80
2023-03-20T23:25:39.302Z,2.50
2023-03-20T23:28:08.460Z,3.50
2023-03-20T23:31:07.504Z,3.30
2023-03-20T23:33:26.076Z,3.57
2023-03-20T23:36:01.301Z,3.33
2023-03-20T23:38:36.047Z,3.40
2023-03-20T23:41:02.825Z,2.43
2023-03-20T23:43:29.626Z,2.77
2023-03-20T23:45:56.582Z,2.80
2023-03-20T23:48:23.623Z,2.70
2023-03-20T23:50:53.462Z,2.77
2023-03-20T23:53:21.512Z,2.87
2023-03-20T23:55:50.130Z,2.70
2023-03-20T23:58:17.764Z,2.80
